Estación Meteorológica Peña el Pijo (Robertgarden) [ 01/30/23 14:49:23 CET ]

Fecha Hora Presion(HPa) Temp (°C) Humedad % Rocio (°C) Viento ( m/s) Direccion Lluvia 1Hora(mm) Lluvia 24H(mm) LLuvia Total(mm)
2010-Dec-11 01:01:14 1018.900 7.3 92 6.1         12.43
2010-Dec-11 02:03:15 1018.400 6.9 93 5.8         12.43
2010-Dec-11 03:01:13 1017.800 6.8 93 5.8         12.43
2010-Dec-11 04:01:11 1017.700 6.2 93 5.2         12.43
2010-Dec-11 05:01:12 1017.000 5.1 93 4.0         12.43
2010-Dec-11 06:01:13 1016.700 3.6 93 2.5         12.43
2010-Dec-11 07:01:14 1016.800 2.8 94 1.9         12.43
2010-Dec-11 08:01:11 1017.000 1.9 94 1.0         12.43
2010-Dec-11 09:01:18 1017.100 1.7 94 0.8         12.43
2010-Dec-11 10:01:16 1017.300 3.6 95 2.9         12.43
2010-Dec-11 11:01:11 1016.900 7.8 93 6.8         12.43
2010-Dec-11 12:01:13 1016.400 11.4 70 6.2         12.43
2010-Dec-11 13:01:14 1015.600 12.6 63 5.7         12.43
2010-Dec-11 14:01:11 1015.100 13.3 65 6.8         12.43
2010-Dec-11 15:01:16 1014.400 13.3 69 7.7         12.43
2010-Dec-11 16:01:13 1013.900 13.9 67 7.8         12.43
2010-Dec-11 17:01:13 1013.800 12.3 71 7.2         12.43
2010-Dec-11 18:01:15 1013.900 9.6 78 5.9         12.43
2010-Dec-11 19:01:13 1013.700 7.6 83 4.9         12.43
2010-Dec-11 20:01:12 1013.500 6.3 87 4.3         12.43
2010-Dec-11 21:01:11 1013.300 5.9 87 3.9         12.43
2010-Dec-11 22:01:18 1012.800 5.1 88 3.3         12.43
2010-Dec-11 23:01:14 1012.200 4.6 87 2.6         12.43

Temperatura Máxima:13°    Temperatura Mínima:
Presión Máxima:1018.900 Hpa    Presión Mínima:1012.200 Hpa


Volver